sensor_id;sensor_type;location;lat;lon;timestamp;P1;durP1;ratioP1;P2;durP2;ratioP2
14153;SDS011;7157;53.144;7.570;2023-02-05T00:09:27;10.07;;;3.92;;
14153;SDS011;7157;53.144;7.570;2023-02-05T00:19:31;8.30;;;4.65;;
14153;SDS011;7157;53.144;7.570;2023-02-05T00:29:34;12.63;;;5.40;;
14153;SDS011;7157;53.144;7.570;2023-02-05T00:39:38;6.07;;;3.83;;
14153;SDS011;7157;53.144;7.570;2023-02-05T00:49:41;7.72;;;4.70;;
14153;SDS011;7157;53.144;7.570;2023-02-05T00:59:45;8.73;;;4.40;;
14153;SDS011;7157;53.144;7.570;2023-02-05T01:09:48;7.80;;;4.38;;
14153;SDS011;7157;53.144;7.570;2023-02-05T01:19:52;9.55;;;5.32;;
14153;SDS011;7157;53.144;7.570;2023-02-05T01:29:55;8.70;;;4.68;;
14153;SDS011;7157;53.144;7.570;2023-02-05T01:39:59;20.42;;;5.80;;
14153;SDS011;7157;53.144;7.570;2023-02-05T01:50:02;9.10;;;5.00;;
14153;SDS011;7157;53.144;7.570;2023-02-05T02:00:07;8.63;;;5.32;;
14153;SDS011;7157;53.144;7.570;2023-02-05T02:10:12;9.10;;;5.05;;
14153;SDS011;7157;53.144;7.570;2023-02-05T02:20:19;8.27;;;4.75;;
14153;SDS011;7157;53.144;7.570;2023-02-05T02:30:26;10.35;;;5.53;;
14153;SDS011;7157;53.144;7.570;2023-02-05T02:40:34;9.05;;;5.25;;
14153;SDS011;7157;53.144;7.570;2023-02-05T02:50:43;15.52;;;5.57;;
14153;SDS011;7157;53.144;7.570;2023-02-05T03:00:49;13.13;;;5.22;;
14153;SDS011;7157;53.144;7.570;2023-02-05T03:10:57;8.95;;;5.38;;
14153;SDS011;7157;53.144;7.570;2023-02-05T03:21:04;10.02;;;5.38;;
14153;SDS011;7157;53.144;7.570;2023-02-05T03:31:12;10.32;;;6.28;;
14153;SDS011;7157;53.144;7.570;2023-02-05T03:41:21;11.98;;;5.78;;
14153;SDS011;7157;53.144;7.570;2023-02-05T03:51:55;9.93;;;6.32;;
14153;SDS011;7157;53.144;7.570;2023-02-05T04:02:02;11.52;;;6.22;;
14153;SDS011;7157;53.144;7.570;2023-02-05T04:12:08;10.52;;;6.75;;
14153;SDS011;7157;53.144;7.570;2023-02-05T04:22:11;11.57;;;6.90;;
14153;SDS011;7157;53.144;7.570;2023-02-05T04:32:15;12.32;;;6.85;;
14153;SDS011;7157;53.144;7.570;2023-02-05T04:42:17;10.38;;;6.72;;
14153;SDS011;7157;53.144;7.570;2023-02-05T04:52:22;12.88;;;7.30;;
14153;SDS011;7157;53.144;7.570;2023-02-05T05:02:24;14.65;;;7.05;;
14153;SDS011;7157;53.144;7.570;2023-02-05T05:12:29;12.63;;;6.78;;
14153;SDS011;7157;53.144;7.570;2023-02-05T05:22:31;13.55;;;6.40;;
14153;SDS011;7157;53.144;7.570;2023-02-05T05:32:36;16.58;;;7.72;;
14153;SDS011;7157;53.144;7.570;2023-02-05T05:42:38;14.57;;;8.00;;
14153;SDS011;7157;53.144;7.570;2023-02-05T05:52:59;14.00;;;7.68;;
14153;SDS011;7157;53.144;7.570;2023-02-05T06:03:02;14.70;;;8.45;;
14153;SDS011;7157;53.144;7.570;2023-02-05T06:13:06;15.27;;;8.73;;
14153;SDS011;7157;53.144;7.570;2023-02-05T06:23:09;15.05;;;8.32;;
14153;SDS011;7157;53.144;7.570;2023-02-05T06:33:13;19.35;;;9.65;;
14153;SDS011;7157;53.144;7.570;2023-02-05T06:43:16;18.27;;;9.60;;
14153;SDS011;7157;53.144;7.570;2023-02-05T06:53:20;18.70;;;9.30;;
14153;SDS011;7157;53.144;7.570;2023-02-05T07:03:23;13.68;;;8.45;;
14153;SDS011;7157;53.144;7.570;2023-02-05T07:13:27;20.17;;;9.75;;
14153;SDS011;7157;53.144;7.570;2023-02-05T07:23:29;17.33;;;10.48;;
14153;SDS011;7157;53.144;7.570;2023-02-05T07:33:34;17.98;;;9.68;;
14153;SDS011;7157;53.144;7.570;2023-02-05T07:43:37;18.42;;;10.30;;
14153;SDS011;7157;53.144;7.570;2023-02-05T07:53:41;18.45;;;10.85;;
14153;SDS011;7157;53.144;7.570;2023-02-05T08:03:44;22.63;;;11.38;;
14153;SDS011;7157;53.144;7.570;2023-02-05T08:13:48;20.38;;;11.05;;
14153;SDS011;7157;53.144;7.570;2023-02-05T08:23:51;19.00;;;11.05;;
14153;SDS011;7157;53.144;7.570;2023-02-05T08:33:55;22.05;;;11.95;;
14153;SDS011;7157;53.144;7.570;2023-02-05T08:44:00;25.67;;;13.35;;
14153;SDS011;7157;53.144;7.570;2023-02-05T08:54:04;28.02;;;14.05;;
14153;SDS011;7157;53.144;7.570;2023-02-05T09:04:10;24.60;;;13.05;;
14153;SDS011;7157;53.144;7.570;2023-02-05T09:14:15;23.83;;;11.85;;
14153;SDS011;7157;53.144;7.570;2023-02-05T09:24:18;23.77;;;11.68;;
14153;SDS011;7157;53.144;7.570;2023-02-05T09:34:22;24.42;;;12.25;;
14153;SDS011;7157;53.144;7.570;2023-02-05T09:44:28;19.23;;;9.80;;
14153;SDS011;7157;53.144;7.570;2023-02-05T09:54:45;19.10;;;10.90;;
14153;SDS011;7157;53.144;7.570;2023-02-05T10:04:53;20.08;;;10.82;;
14153;SDS011;7157;53.144;7.570;2023-02-05T10:15:00;18.42;;;9.40;;
14153;SDS011;7157;53.144;7.570;2023-02-05T10:25:31;13.55;;;7.22;;
14153;SDS011;7157;53.144;7.570;2023-02-05T10:35:57;16.10;;;8.10;;
14153;SDS011;7157;53.144;7.570;2023-02-05T10:46:02;17.00;;;5.68;;
14153;SDS011;7157;53.144;7.570;2023-02-05T10:56:10;15.70;;;2.50;;
14153;SDS011;7157;53.144;7.570;2023-02-05T11:06:17;10.90;;;1.25;;
14153;SDS011;7157;53.144;7.570;2023-02-05T11:16:24;12.10;;;1.70;;
14153;SDS011;7157;53.144;7.570;2023-02-05T11:26:36;15.88;;;2.05;;
14153;SDS011;7157;53.144;7.570;2023-02-05T11:36:46;16.45;;;2.95;;
14153;SDS011;7157;53.144;7.570;2023-02-05T11:46:51;14.88;;;2.13;;
14153;SDS011;7157;53.144;7.570;2023-02-05T11:57:02;17.60;;;1.83;;
14153;SDS011;7157;53.144;7.570;2023-02-05T12:27:46;18.33;;;2.40;;
14153;SDS011;7157;53.144;7.570;2023-02-05T12:38:04;23.13;;;3.15;;
14153;SDS011;7157;53.144;7.570;2023-02-05T12:48:20;14.65;;;2.65;;
14153;SDS011;7157;53.144;7.570;2023-02-05T12:58:42;16.45;;;1.92;;
14153;SDS011;7157;53.144;7.570;2023-02-05T13:08:47;21.50;;;2.33;;
14153;SDS011;7157;53.144;7.570;2023-02-05T13:18:56;15.70;;;1.77;;
14153;SDS011;7157;53.144;7.570;2023-02-05T13:29:03;16.30;;;2.30;;
14153;SDS011;7157;53.144;7.570;2023-02-05T13:39:16;27.50;;;2.40;;
14153;SDS011;7157;53.144;7.570;2023-02-05T13:49:51;15.63;;;2.17;;
14153;SDS011;7157;53.144;7.570;2023-02-05T14:00:09;17.80;;;2.22;;
14153;SDS011;7157;53.144;7.570;2023-02-05T14:10:24;35.88;;;2.47;;
14153;SDS011;7157;53.144;7.570;2023-02-05T14:20:31;6.80;;;2.05;;
14153;SDS011;7157;53.144;7.570;2023-02-05T14:30:48;16.85;;;2.88;;
14153;SDS011;7157;53.144;7.570;2023-02-05T14:41:01;20.73;;;3.20;;
14153;SDS011;7157;53.144;7.570;2023-02-05T14:51:13;21.85;;;2.78;;
14153;SDS011;7157;53.144;7.570;2023-02-05T15:01:39;19.45;;;3.08;;
14153;SDS011;7157;53.144;7.570;2023-02-05T15:11:47;25.83;;;2.75;;
14153;SDS011;7157;53.144;7.570;2023-02-05T15:22:06;18.87;;;2.27;;
14153;SDS011;7157;53.144;7.570;2023-02-05T15:32:23;17.73;;;3.45;;
14153;SDS011;7157;53.144;7.570;2023-02-05T15:42:31;23.35;;;2.38;;
14153;SDS011;7157;53.144;7.570;2023-02-05T15:52:38;18.15;;;2.47;;
14153;SDS011;7157;53.144;7.570;2023-02-05T16:02:43;21.48;;;2.42;;
14153;SDS011;7157;53.144;7.570;2023-02-05T16:12:58;16.58;;;2.22;;
14153;SDS011;7157;53.144;7.570;2023-02-05T16:23:03;11.50;;;1.73;;
14153;SDS011;7157;53.144;7.570;2023-02-05T16:33:12;19.23;;;2.65;;
14153;SDS011;7157;53.144;7.570;2023-02-05T16:43:28;22.65;;;3.13;;
14153;SDS011;7157;53.144;7.570;2023-02-05T16:53:33;22.60;;;2.50;;
14153;SDS011;7157;53.144;7.570;2023-02-05T17:03:40;21.48;;;3.67;;
14153;SDS011;7157;53.144;7.570;2023-02-05T17:13:49;20.35;;;2.00;;
14153;SDS011;7157;53.144;7.570;2023-02-05T17:23:53;18.98;;;3.33;;
14153;SDS011;7157;53.144;7.570;2023-02-05T17:33:59;21.17;;;2.50;;
14153;SDS011;7157;53.144;7.570;2023-02-05T17:44:03;23.55;;;2.38;;
14153;SDS011;7157;53.144;7.570;2023-02-05T17:54:09;21.33;;;2.20;;
14153;SDS011;7157;53.144;7.570;2023-02-05T18:04:15;16.08;;;3.15;;
14153;SDS011;7157;53.144;7.570;2023-02-05T18:14:18;17.25;;;2.53;;
14153;SDS011;7157;53.144;7.570;2023-02-05T18:24:24;17.33;;;2.92;;
14153;SDS011;7157;53.144;7.570;2023-02-05T18:34:26;26.48;;;2.88;;
14153;SDS011;7157;53.144;7.570;2023-02-05T18:44:31;14.65;;;2.63;;
14153;SDS011;7157;53.144;7.570;2023-02-05T18:54:33;26.25;;;3.83;;
14153;SDS011;7157;53.144;7.570;2023-02-05T19:04:37;24.48;;;3.40;;
14153;SDS011;7157;53.144;7.570;2023-02-05T19:14:41;28.90;;;4.10;;
14153;SDS011;7157;53.144;7.570;2023-02-05T19:24:45;18.98;;;3.42;;
14153;SDS011;7157;53.144;7.570;2023-02-05T19:34:47;12.52;;;2.97;;
14153;SDS011;7157;53.144;7.570;2023-02-05T19:44:51;24.30;;;3.40;;
14153;SDS011;7157;53.144;7.570;2023-02-05T19:54:54;18.38;;;4.03;;
14153;SDS011;7157;53.144;7.570;2023-02-05T20:04:58;15.57;;;3.45;;
14153;SDS011;7157;53.144;7.570;2023-02-05T20:15:01;34.30;;;3.53;;
14153;SDS011;7157;53.144;7.570;2023-02-05T20:25:05;30.45;;;3.75;;
14153;SDS011;7157;53.144;7.570;2023-02-05T20:35:08;17.35;;;2.72;;
14153;SDS011;7157;53.144;7.570;2023-02-05T20:45:14;32.83;;;3.20;;
14153;SDS011;7157;53.144;7.570;2023-02-05T20:55:17;17.48;;;3.17;;
14153;SDS011;7157;53.144;7.570;2023-02-05T21:05:21;13.68;;;2.30;;
14153;SDS011;7157;53.144;7.570;2023-02-05T21:15:26;23.27;;;3.45;;
14153;SDS011;7157;53.144;7.570;2023-02-05T21:25:30;25.25;;;2.80;;
14153;SDS011;7157;53.144;7.570;2023-02-05T21:35:36;19.30;;;2.65;;
14153;SDS011;7157;53.144;7.570;2023-02-05T21:45:41;27.17;;;2.63;;
14153;SDS011;7157;53.144;7.570;2023-02-05T21:55:53;17.92;;;3.33;;
14153;SDS011;7157;53.144;7.570;2023-02-05T22:06:38;21.80;;;1.70;;
14153;SDS011;7157;53.144;7.570;2023-02-05T22:16:46;29.73;;;3.70;;
14153;SDS011;7157;53.144;7.570;2023-02-05T22:27:06;13.98;;;2.80;;
14153;SDS011;7157;53.144;7.570;2023-02-05T22:37:54;25.35;;;2.85;;
14153;SDS011;7157;53.144;7.570;2023-02-05T23:22:11;25.75;;;2.88;;
14153;SDS011;7157;53.144;7.570;2023-02-05T23:43:31;30.60;;;2.95;;
14153;SDS011;7157;53.144;7.570;2023-02-05T23:53:59;20.15;;;3.17;;
